Time;durP1;ratioP1;P1;durP2;ratioP2;P2;SDS_P1;SDS_P2;PMS_P1;PMS_P2;Temp;Humidity;BMP_temperature;BMP_pressure;BME280_temperature;BME280_humidity;BME280_pressure;Samples;Min_cycle;Max_cycle;Signal;HPM_P1;HPM_P2
2022/06/07 00:01:27;;;;;;;4.77;2.13;;;;;;;;;;5033618;28;20206;-85
2022/06/07 00:03:54;;;;;;;2.73;2.17;;;;;;;;;;5033421;28;20251;-84
2022/06/07 00:06:22;;;;;;;2.07;1.90;;;;;;;;;;5033533;28;20224;-85
2022/06/07 00:08:50;;;;;;;3.07;2.20;;;;;;;;;;5033176;28;20265;-85
2022/06/07 00:11:17;;;;;;;2.20;2.10;;;;;;;;;;5033704;28;20206;-85
2022/06/07 00:13:45;;;;;;;2.20;2.10;;;;;;;;;;5033221;28;20191;-85
2022/06/07 00:16:12;;;;;;;3.17;2.47;;;;;;;;;;5033173;28;20692;-85
2022/06/07 00:18:39;;;;;;;1.90;1.80;;;;;;;;;;5033541;28;20250;-84
2022/06/07 00:21:07;;;;;;;2.40;2.20;;;;;;;;;;5033610;28;20680;-85
2022/06/07 00:23:35;;;;;;;2.70;2.20;;;;;;;;;;5033108;28;20636;-85
2022/06/07 00:26:03;;;;;;;4.40;2.20;;;;;;;;;;5033152;28;20728;-84
2022/06/07 00:28:31;;;;;;;2.07;1.97;;;;;;;;;;5032804;28;20209;-85
2022/06/07 00:30:58;;;;;;;5.47;2.20;;;;;;;;;;5033008;28;20220;-85
2022/06/07 00:33:26;;;;;;;2.63;2.40;;;;;;;;;;5032900;28;20256;-84
2022/06/07 00:35:53;;;;;;;2.50;2.10;;;;;;;;;;5032954;28;20205;-85
2022/06/07 00:38:20;;;;;;;3.13;2.83;;;;;;;;;;5032959;28;20201;-84
2022/06/07 00:40:48;;;;;;;5.17;2.10;;;;;;;;;;5033199;28;20251;-85
2022/06/07 00:43:15;;;;;;;3.80;2.53;;;;;;;;;;5032973;28;20861;-84
2022/06/07 00:45:42;;;;;;;4.93;2.37;;;;;;;;;;5033073;28;20673;-84
2022/06/07 00:48:10;;;;;;;2.97;2.40;;;;;;;;;;5032230;28;20208;-84
2022/06/07 00:50:42;;;;;;;2.37;2.20;;;;;;;;;;5032774;28;20259;-84
2022/06/07 00:53:21;;;;;;;4.87;2.43;;;;;;;;;;5032803;28;20616;-84
2022/06/07 00:55:50;;;;;;;2.87;2.50;;;;;;;;;;5032835;28;20196;-85
2022/06/07 00:58:17;;;;;;;2.93;2.60;;;;;;;;;;5032037;28;20265;-84
2022/06/07 01:00:44;;;;;;;3.23;2.10;;;;;;;;;;5032797;28;20199;-85
2022/06/07 01:03:12;;;;;;;2.33;2.17;;;;;;;;;;5032458;28;20663;-84
2022/06/07 01:05:39;;;;;;;2.10;1.93;;;;;;;;;;5032433;28;20203;-85
2022/06/07 01:10:54;;;;;;;4.63;2.60;;;;;;;;;;5032542;28;20234;-85
2022/06/07 01:13:23;;;;;;;3.00;2.40;;;;;;;;;;5031922;28;20303;-84
2022/06/07 01:15:51;;;;;;;5.67;2.87;;;;;;;;;;5032277;28;20204;-84
2022/06/07 01:18:18;;;;;;;3.33;2.07;;;;;;;;;;5032425;28;20652;-84
2022/06/07 01:20:45;;;;;;;2.73;2.33;;;;;;;;;;5032301;28;20636;-84
2022/06/07 01:23:14;;;;;;;4.20;2.20;;;;;;;;;;5032289;28;20204;-84
2022/06/07 01:25:41;;;;;;;3.20;2.47;;;;;;;;;;5032306;28;20198;-84
2022/06/07 01:28:08;;;;;;;2.47;2.10;;;;;;;;;;5032024;28;20204;-84
2022/06/07 01:30:35;;;;;;;3.20;2.80;;;;;;;;;;5032301;28;20205;-85
2022/06/07 01:33:02;;;;;;;2.10;2.00;;;;;;;;;;5032250;28;20560;-84
2022/06/07 01:35:29;;;;;;;2.53;2.00;;;;;;;;;;5032329;28;20196;-84
2022/06/07 01:37:56;;;;;;;2.70;2.50;;;;;;;;;;5032100;28;20249;-83
2022/06/07 01:43:09;;;;;;;2.70;2.50;;;;;;;;;;5031788;28;21001;-84
2022/06/07 01:45:36;;;;;;;2.57;2.37;;;;;;;;;;5031898;28;20206;-84
2022/06/07 01:48:04;;;;;;;3.50;2.60;;;;;;;;;;5031636;28;20806;-84
2022/06/07 01:50:31;;;;;;;3.00;2.47;;;;;;;;;;5032385;28;20202;-85
2022/06/07 01:52:58;;;;;;;2.47;2.33;;;;;;;;;;5031766;28;20248;-84
2022/06/07 01:55:26;;;;;;;5.50;2.53;;;;;;;;;;5031752;28;20670;-84
2022/06/07 01:57:53;;;;;;;3.67;2.47;;;;;;;;;;5031697;28;20678;-84
2022/06/07 02:00:20;;;;;;;2.47;2.27;;;;;;;;;;5031970;28;20198;-84
2022/06/07 02:02:48;;;;;;;2.87;2.67;;;;;;;;;;5032037;28;20204;-84
2022/06/07 02:05:17;;;;;;;3.23;3.03;;;;;;;;;;5031373;28;20230;-84
2022/06/07 02:07:44;;;;;;;2.50;2.40;;;;;;;;;;5031633;28;20309;-83
2022/06/07 02:10:11;;;;;;;2.80;2.60;;;;;;;;;;5035614;28;20566;-84
2022/06/07 02:12:39;;;;;;;2.50;2.30;;;;;;;;;;5035473;28;20234;-84
2022/06/07 02:15:07;;;;;;;2.50;2.30;;;;;;;;;;5035760;28;20206;-84
2022/06/07 02:17:36;;;;;;;3.47;2.73;;;;;;;;;;5035544;28;20237;-84
2022/06/07 02:20:03;;;;;;;3.67;2.10;;;;;;;;;;5035603;28;20263;-83
2022/06/07 02:22:30;;;;;;;2.80;2.60;;;;;;;;;;5036000;28;20202;-84
2022/06/07 02:24:57;;;;;;;4.97;2.30;;;;;;;;;;5035533;28;20204;-84
2022/06/07 02:27:24;;;;;;;3.40;2.70;;;;;;;;;;5035440;28;20229;-83
2022/06/07 02:29:54;;;;;;;5.50;2.50;;;;;;;;;;5035190;28;20253;-84
2022/06/07 02:32:24;;;;;;;2.17;2.00;;;;;;;;;;5035430;28;20194;-84
2022/06/07 02:34:53;;;;;;;2.20;2.10;;;;;;;;;;5035079;28;20194;-84
2022/06/07 02:37:21;;;;;;;2.53;2.30;;;;;;;;;;5035312;28;20198;-84
2022/06/07 02:39:48;;;;;;;2.43;2.23;;;;;;;;;;5034920;28;20203;-84
2022/06/07 02:42:17;;;;;;;2.53;2.33;;;;;;;;;;5035515;28;20280;-85
2022/06/07 02:44:44;;;;;;;2.87;2.67;;;;;;;;;;5035377;28;20207;-85
2022/06/07 02:47:13;;;;;;;2.30;2.10;;;;;;;;;;5035076;28;20233;-85
2022/06/07 02:49:40;;;;;;;2.57;2.37;;;;;;;;;;5034800;28;20198;-84
2022/06/07 02:52:08;;;;;;;2.00;1.90;;;;;;;;;;5035517;28;20203;-85
2022/06/07 02:54:35;;;;;;;3.53;2.50;;;;;;;;;;5034476;28;20260;-84
2022/06/07 02:57:02;;;;;;;5.13;2.17;;;;;;;;;;5035251;28;20569;-84
2022/06/07 02:59:29;;;;;;;2.13;2.03;;;;;;;;;;5034660;28;20199;-84
2022/06/07 03:01:56;;;;;;;3.23;2.40;;;;;;;;;;5034754;28;20213;-84
2022/06/07 03:04:24;;;;;;;4.33;2.60;;;;;;;;;;5034589;28;20221;-84
2022/06/07 03:06:51;;;;;;;2.93;2.63;;;;;;;;;;5034721;28;20265;-84
2022/06/07 03:09:19;;;;;;;2.83;2.50;;;;;;;;;;5034630;28;20203;-85
2022/06/07 03:11:46;;;;;;;3.90;2.50;;;;;;;;;;5034594;28;20238;-84
2022/06/07 03:14:13;;;;;;;2.60;2.40;;;;;;;;;;5034477;28;20211;-84
2022/06/07 03:16:40;;;;;;;2.57;2.47;;;;;;;;;;5034282;28;20202;-84
2022/06/07 03:19:07;;;;;;;2.43;2.23;;;;;;;;;;5034181;28;20206;-85
2022/06/07 03:21:37;;;;;;;2.93;2.73;;;;;;;;;;5034036;28;20202;-84
2022/06/07 03:24:05;;;;;;;2.87;2.67;;;;;;;;;;5034115;28;20187;-84
2022/06/07 03:26:32;;;;;;;2.70;2.50;;;;;;;;;;5034237;28;20195;-85
2022/06/07 03:28:59;;;;;;;2.20;2.00;;;;;;;;;;5034152;28;20210;-85
2022/06/07 03:31:27;;;;;;;3.53;2.50;;;;;;;;;;5031703;28;20198;-83
2022/06/07 03:33:55;;;;;;;2.60;2.40;;;;;;;;;;5034477;28;20607;-84
2022/06/07 03:36:24;;;;;;;2.87;2.43;;;;;;;;;;5033822;28;20195;-82
2022/06/07 03:38:55;;;;;;;1.93;1.77;;;;;;;;;;5043999;28;20248;-84
2022/06/07 03:41:24;;;;;;;2.60;2.40;;;;;;;;;;5053806;28;20186;-83
2022/06/07 03:43:53;;;;;;;5.00;2.77;;;;;;;;;;5053982;28;20194;-83
2022/06/07 03:46:28;;;;;;;2.83;2.50;;;;;;;;;;5053310;28;20196;-82
2022/06/07 03:48:56;;;;;;;3.73;2.97;;;;;;;;;;5053504;28;20235;-82
2022/06/07 03:51:26;;;;;;;2.77;2.57;;;;;;;;;;5054224;28;20228;-82
2022/06/07 03:53:55;;;;;;;2.57;2.37;;;;;;;;;;5053714;28;20347;-82
2022/06/07 03:56:23;;;;;;;4.27;2.77;;;;;;;;;;5053352;28;20190;-82
2022/06/07 03:58:51;;;;;;;2.80;2.50;;;;;;;;;;5053636;28;20194;-83
2022/06/07 04:01:20;;;;;;;4.93;2.53;;;;;;;;;;5053801;28;20255;-83
2022/06/07 04:03:49;;;;;;;3.70;3.00;;;;;;;;;;5053598;28;20275;-83
2022/06/07 04:06:18;;;;;;;4.23;2.63;;;;;;;;;;5053526;28;20198;-83
2022/06/07 04:08:45;;;;;;;3.53;2.87;;;;;;;;;;5053165;28;20226;-83
2022/06/07 04:11:16;;;;;;;3.00;2.70;;;;;;;;;;5053043;28;20201;-83
2022/06/07 04:13:44;;;;;;;2.53;2.40;;;;;;;;;;5053202;28;20232;-83
2022/06/07 04:16:13;;;;;;;5.23;2.70;;;;;;;;;;5053267;28;20205;-83
2022/06/07 04:18:41;;;;;;;3.93;2.57;;;;;;;;;;5052763;28;20194;-83
2022/06/07 04:21:08;;;;;;;2.43;2.23;;;;;;;;;;5053244;28;20206;-82
2022/06/07 04:23:35;;;;;;;2.70;2.50;;;;;;;;;;5052930;28;20251;-83
2022/06/07 04:26:07;;;;;;;4.80;2.80;;;;;;;;;;5053309;28;20273;-83
2022/06/07 04:28:35;;;;;;;2.80;2.47;;;;;;;;;;5053087;28;20214;-83
2022/06/07 04:31:02;;;;;;;2.87;2.67;;;;;;;;;;5052427;28;20695;-83
2022/06/07 04:33:30;;;;;;;2.63;2.43;;;;;;;;;;5052481;28;20224;-83
2022/06/07 04:35:57;;;;;;;5.90;2.53;;;;;;;;;;5052841;28;20203;-83
2022/06/07 04:38:24;;;;;;;3.30;2.40;;;;;;;;;;5052497;28;20202;-83
2022/06/07 04:40:51;;;;;;;3.00;2.43;;;;;;;;;;5052812;28;20735;-83
2022/06/07 04:43:18;;;;;;;5.20;2.50;;;;;;;;;;5052447;28;20259;-83
2022/06/07 04:45:48;;;;;;;2.60;2.40;;;;;;;;;;5052452;28;20203;-83
2022/06/07 04:48:16;;;;;;;2.80;2.60;;;;;;;;;;5052103;28;20308;-83
2022/06/07 04:50:43;;;;;;;2.83;2.17;;;;;;;;;;5052956;28;20206;-83
2022/06/07 04:53:10;;;;;;;2.77;2.40;;;;;;;;;;5052476;28;20198;-82
2022/06/07 04:55:38;;;;;;;2.40;2.30;;;;;;;;;;5052551;28;20203;-83
2022/06/07 04:58:06;;;;;;;2.93;2.63;;;;;;;;;;5052406;28;20193;-83
2022/06/07 05:00:33;;;;;;;2.63;2.43;;;;;;;;;;5052445;28;20203;-83
2022/06/07 05:03:01;;;;;;;3.10;2.83;;;;;;;;;;5052661;28;20237;-83
2022/06/07 05:05:29;;;;;;;2.83;2.17;;;;;;;;;;5052393;28;20645;-83
2022/06/07 05:07:56;;;;;;;2.50;2.30;;;;;;;;;;5052993;28;20217;-83
2022/06/07 05:10:23;;;;;;;3.47;2.13;;;;;;;;;;5052354;28;20628;-84
2022/06/07 05:12:50;;;;;;;2.57;2.37;;;;;;;;;;5052384;28;20218;-83
2022/06/07 05:15:17;;;;;;;2.70;2.50;;;;;;;;;;5052071;28;20210;-83
2022/06/07 05:17:47;;;;;;;3.00;2.50;;;;;;;;;;5052053;28;20672;-83
2022/06/07 05:20:15;;;;;;;2.63;2.43;;;;;;;;;;5052374;28;20240;-83
2022/06/07 05:22:42;;;;;;;2.47;2.30;;;;;;;;;;5052464;28;20210;-83
2022/06/07 05:25:10;;;;;;;3.07;2.37;;;;;;;;;;5051885;28;20241;-83
2022/06/07 05:27:39;;;;;;;3.10;2.30;;;;;;;;;;5051696;28;20227;-84
2022/06/07 05:30:07;;;;;;;2.77;2.50;;;;;;;;;;5052178;28;20288;-83
2022/06/07 05:32:34;;;;;;;2.57;2.20;;;;;;;;;;5052312;28;20573;-84
2022/06/07 05:35:03;;;;;;;2.93;2.67;;;;;;;;;;5051731;28;20254;-83
2022/06/07 05:37:34;;;;;;;2.13;2.03;;;;;;;;;;5052645;28;20553;-84
2022/06/07 05:40:02;;;;;;;2.87;2.40;;;;;;;;;;5051838;28;20667;-84
2022/06/07 05:42:30;;;;;;;2.60;2.40;;;;;;;;;;5051740;28;20202;-84
2022/06/07 05:44:57;;;;;;;2.70;2.50;;;;;;;;;;5051778;28;20197;-83
2022/06/07 05:47:25;;;;;;;2.77;2.23;;;;;;;;;;5052044;28;20599;-84
2022/06/07 05:49:52;;;;;;;2.40;2.00;;;;;;;;;;5052098;28;20205;-84
2022/06/07 05:52:19;;;;;;;4.93;2.70;;;;;;;;;;5052111;28;20708;-84
2022/06/07 05:54:48;;;;;;;3.30;2.10;;;;;;;;;;5051812;28;20197;-83
2022/06/07 05:57:15;;;;;;;2.47;2.27;;;;;;;;;;5051832;28;20205;-84
2022/06/07 05:59:42;;;;;;;2.27;2.07;;;;;;;;;;5051869;28;20617;-83
2022/06/07 06:02:11;;;;;;;3.57;2.23;;;;;;;;;;5051708;28;20248;-84
2022/06/07 06:04:38;;;;;;;2.07;1.97;;;;;;;;;;5051843;28;20202;-84
2022/06/07 06:07:05;;;;;;;2.63;2.17;;;;;;;;;;5051628;28;20197;-83
2022/06/07 06:12:19;;;;;;;2.23;2.03;;;;;;;;;;5051595;28;20275;-84
2022/06/07 06:14:46;;;;;;;4.60;2.50;;;;;;;;;;5051468;28;20201;-84
2022/06/07 06:17:13;;;;;;;3.53;2.43;;;;;;;;;;5051741;28;20217;-84
2022/06/07 06:19:40;;;;;;;3.53;2.07;;;;;;;;;;5051490;28;20611;-84
2022/06/07 06:22:07;;;;;;;3.33;2.50;;;;;;;;;;5051481;28;20631;-84
2022/06/07 06:24:34;;;;;;;4.27;2.50;;;;;;;;;;5051598;28;20202;-83
2022/06/07 06:27:01;;;;;;;2.40;2.20;;;;;;;;;;5051187;28;20233;-84
2022/06/07 06:29:30;;;;;;;3.53;2.30;;;;;;;;;;5051381;28;20225;-84
2022/06/07 06:31:57;;;;;;;2.40;2.20;;;;;;;;;;5051669;28;20197;-84
2022/06/07 06:34:29;;;;;;;2.07;1.97;;;;;;;;;;5051361;28;20247;-84
2022/06/07 06:36:56;;;;;;;2.40;2.20;;;;;;;;;;5051469;28;20190;-84
2022/06/07 06:39:24;;;;;;;3.80;2.20;;;;;;;;;;5051531;28;20649;-84
2022/06/07 06:41:51;;;;;;;5.67;2.07;;;;;;;;;;5051638;28;20267;-84
2022/06/07 06:44:18;;;;;;;2.43;2.23;;;;;;;;;;5050913;28;20195;-84
2022/06/07 06:46:49;;;;;;;4.20;2.37;;;;;;;;;;5051216;28;20644;-84
2022/06/07 06:49:18;;;;;;;3.90;2.33;;;;;;;;;;5051458;28;20214;-84
2022/06/07 06:51:46;;;;;;;2.83;2.20;;;;;;;;;;5051491;28;20206;-85
2022/06/07 06:54:14;;;;;;;6.80;3.43;;;;;;;;;;5051186;28;20198;-85
2022/06/07 06:56:41;;;;;;;2.70;2.50;;;;;;;;;;5054459;28;20236;-85
2022/06/07 06:59:09;;;;;;;2.50;2.30;;;;;;;;;;5054679;28;20197;-85
2022/06/07 07:01:38;;;;;;;2.43;2.03;;;;;;;;;;5054494;28;20240;-85
2022/06/07 07:04:10;;;;;;;2.80;2.60;;;;;;;;;;5054714;28;20194;-85
2022/06/07 07:06:38;;;;;;;5.67;2.20;;;;;;;;;;5054717;28;20646;-84
2022/06/07 07:09:05;;;;;;;3.30;2.20;;;;;;;;;;5054445;28;20225;-84
2022/06/07 07:11:35;;;;;;;3.57;2.40;;;;;;;;;;5054432;28;20717;-85
2022/06/07 07:14:02;;;;;;;2.47;2.27;;;;;;;;;;5054561;28;20677;-85
2022/06/07 07:16:32;;;;;;;3.60;2.43;;;;;;;;;;5054723;28;20252;-84
2022/06/07 07:19:00;;;;;;;3.23;2.20;;;;;;;;;;5054478;28;20193;-85
2022/06/07 07:21:33;;;;;;;3.73;2.20;;;;;;;;;;5054576;28;20608;-85
2022/06/07 07:24:01;;;;;;;2.03;1.90;;;;;;;;;;5054218;28;20186;-85
2022/06/07 07:26:29;;;;;;;2.70;2.30;;;;;;;;;;5054276;28;20201;-84
2022/06/07 07:28:56;;;;;;;3.40;2.27;;;;;;;;;;5053779;28;20275;-85
2022/06/07 07:31:25;;;;;;;2.50;2.27;;;;;;;;;;5054495;28;20248;-85
2022/06/07 07:33:53;;;;;;;2.10;2.00;;;;;;;;;;5054307;28;20249;-85
2022/06/07 07:36:20;;;;;;;2.20;2.00;;;;;;;;;;5054352;28;20201;-85
2022/06/07 07:38:48;;;;;;;2.23;2.13;;;;;;;;;;5054158;28;20194;-85
2022/06/07 07:41:22;;;;;;;3.10;2.17;;;;;;;;;;5053831;28;20670;-85
2022/06/07 07:43:50;;;;;;;2.27;2.10;;;;;;;;;;5054106;28;20611;-85
2022/06/07 07:46:18;;;;;;;2.43;2.23;;;;;;;;;;5054018;28;20202;-85
2022/06/07 07:48:45;;;;;;;2.40;2.20;;;;;;;;;;5053664;28;20221;-85
2022/06/07 07:51:18;;;;;;;2.47;2.27;;;;;;;;;;5054186;28;20205;-85
2022/06/07 07:53:45;;;;;;;2.73;2.50;;;;;;;;;;5053939;28;20197;-85
2022/06/07 07:56:13;;;;;;;2.50;2.30;;;;;;;;;;5053815;28;20197;-85
2022/06/07 07:58:41;;;;;;;2.60;2.40;;;;;;;;;;5053990;28;20662;-86
2022/06/07 08:01:10;;;;;;;2.50;2.30;;;;;;;;;;5053671;28;20197;-86
2022/06/07 08:03:39;;;;;;;2.83;2.63;;;;;;;;;;5053735;28;20579;-86
2022/06/07 08:06:07;;;;;;;2.20;2.00;;;;;;;;;;5053449;28;20236;-86
2022/06/07 08:08:34;;;;;;;2.10;1.93;;;;;;;;;;5053872;28;20221;-86
2022/06/07 08:11:01;;;;;;;2.97;1.70;;;;;;;;;;5053545;28;20694;-86
2022/06/07 08:13:30;;;;;;;2.73;2.10;;;;;;;;;;5053278;28;20233;-86
2022/06/07 08:15:58;;;;;;;2.03;1.93;;;;;;;;;;5053726;28;20573;-86
2022/06/07 08:18:25;;;;;;;3.10;2.57;;;;;;;;;;5053123;28;20237;-86
2022/06/07 08:20:57;;;;;;;2.10;1.90;;;;;;;;;;5053589;28;20206;-86
2022/06/07 08:23:25;;;;;;;2.20;2.10;;;;;;;;;;5053383;28;20289;-86
2022/06/07 08:25:53;;;;;;;2.07;1.97;;;;;;;;;;5053365;28;20193;-86
2022/06/07 08:28:20;;;;;;;3.50;2.47;;;;;;;;;;5052919;28;20256;-86
2022/06/07 08:30:49;;;;;;;2.40;2.20;;;;;;;;;;5053027;28;20252;-86
2022/06/07 08:38:45;;;;;;;2.10;1.93;;;;;;;;;;5052866;28;20234;-86
2022/06/07 08:41:21;;;;;;;2.20;1.97;;;;;;;;;;5052937;28;20206;-86
2022/06/07 08:43:48;;;;;;;4.03;2.10;;;;;;;;;;5052764;28;20653;-85
2022/06/07 08:46:19;;;;;;;2.53;2.33;;;;;;;;;;5052774;28;20252;-85
2022/06/07 08:48:47;;;;;;;2.20;2.00;;;;;;;;;;5052425;28;20208;-85
2022/06/07 08:51:19;;;;;;;1.97;1.87;;;;;;;;;;5052734;28;20189;-85
2022/06/07 08:53:50;;;;;;;2.30;2.00;;;;;;;;;;5052801;28;20634;-85
2022/06/07 08:56:20;;;;;;;3.30;1.93;;;;;;;;;;5052593;28;20701;-85
2022/06/07 08:58:51;;;;;;;2.00;1.87;;;;;;;;;;5052187;28;20186;-85
2022/06/07 09:01:29;;;;;;;2.20;2.00;;;;;;;;;;5052809;28;20216;-86
2022/06/07 09:04:03;;;;;;;4.10;2.13;;;;;;;;;;5052585;28;20240;-85
2022/06/07 09:06:34;;;;;;;2.20;2.10;;;;;;;;;;5052433;28;20192;-85
2022/06/07 09:09:02;;;;;;;2.73;2.53;;;;;;;;;;5052367;28;20205;-85
2022/06/07 09:14:23;;;;;;;4.83;2.10;;;;;;;;;;5052333;28;20316;-85
2022/06/07 09:16:52;;;;;;;2.23;2.03;;;;;;;;;;5052596;28;20197;-85
2022/06/07 09:19:24;;;;;;;1.70;1.60;;;;;;;;;;5052014;28;20576;-85
2022/06/07 09:21:51;;;;;;;1.90;1.80;;;;;;;;;;5052367;28;20597;-86
2022/06/07 09:24:26;;;;;;;1.80;1.70;;;;;;;;;;5052537;28;20202;-85
2022/06/07 09:26:54;;;;;;;1.80;1.70;;;;;;;;;;5052450;28;20216;-85
2022/06/07 09:29:22;;;;;;;2.77;2.00;;;;;;;;;;5052119;28;20257;-85
2022/06/07 09:31:52;;;;;;;2.83;1.70;;;;;;;;;;5052023;28;20202;-85
2022/06/07 09:34:25;;;;;;;2.33;2.00;;;;;;;;;;5051982;28;20198;-85
2022/06/07 09:36:57;;;;;;;1.70;1.60;;;;;;;;;;5052267;28;20186;-85
2022/06/07 09:39:29;;;;;;;4.40;2.37;;;;;;;;;;5052150;28;20181;-85
2022/06/07 09:42:01;;;;;;;2.10;1.90;;;;;;;;;;5052118;28;20193;-85
2022/06/07 09:44:32;;;;;;;1.93;1.83;;;;;;;;;;5052113;28;20194;-86
2022/06/07 09:47:02;;;;;;;1.97;1.87;;;;;;;;;;5051655;28;20241;-85
2022/06/07 09:49:35;;;;;;;2.70;2.00;;;;;;;;;;5051769;28;20678;-84
2022/06/07 09:52:10;;;;;;;1.90;1.80;;;;;;;;;;5051946;28;20280;-84
2022/06/07 09:54:41;;;;;;;2.07;1.97;;;;;;;;;;5051532;28;20200;-85
2022/06/07 09:57:22;;;;;;;2.33;1.93;;;;;;;;;;5052111;28;20196;-85
2022/06/07 10:00:06;;;;;;;5.13;1.80;;;;;;;;;;5052032;28;20556;-85
2022/06/07 10:03:09;;;;;;;1.93;1.83;;;;;;;;;;5051667;28;20190;-86
2022/06/07 10:05:41;;;;;;;1.80;1.70;;;;;;;;;;5038368;28;20258;-85
2022/06/07 10:08:18;;;;;;;2.47;1.80;;;;;;;;;;5051827;28;20186;-85
2022/06/07 10:10:51;;;;;;;1.80;1.70;;;;;;;;;;5051368;28;20210;-85
2022/06/07 10:13:27;;;;;;;1.90;1.80;;;;;;;;;;5051291;28;20240;-85
2022/06/07 10:16:01;;;;;;;1.67;1.57;;;;;;;;;;5051851;28;20570;-85
2022/06/07 10:18:39;;;;;;;2.33;2.23;;;;;;;;;;5051932;28;20229;-84
2022/06/07 10:21:25;;;;;;;2.23;1.80;;;;;;;;;;5051654;28;20190;-85
2022/06/07 10:24:05;;;;;;;1.83;1.73;;;;;;;;;;5051533;28;20236;-85
2022/06/07 10:26:40;;;;;;;2.90;2.37;;;;;;;;;;5051556;28;20190;-85
2022/06/07 10:29:18;;;;;;;2.00;1.90;;;;;;;;;;5051538;28;20267;-84
2022/06/07 10:31:50;;;;;;;2.33;2.13;;;;;;;;;;5054635;28;20189;-84
2022/06/07 10:34:27;;;;;;;2.07;1.87;;;;;;;;;;5055491;28;20609;-85
2022/06/07 10:37:01;;;;;;;3.00;1.90;;;;;;;;;;5055530;28;20193;-84
2022/06/07 10:39:42;;;;;;;2.73;2.10;;;;;;;;;;5055442;28;20239;-85
2022/06/07 10:42:18;;;;;;;4.93;2.07;;;;;;;;;;5055375;28;20214;-85
2022/06/07 10:44:49;;;;;;;2.40;2.07;;;;;;;;;;5055252;28;20272;-85
2022/06/07 10:47:21;;;;;;;4.27;2.53;;;;;;;;;;5055392;28;20540;-85
2022/06/07 10:49:53;;;;;;;2.27;2.17;;;;;;;;;;5055094;28;20206;-85
2022/06/07 10:52:33;;;;;;;2.10;2.00;;;;;;;;;;5055119;28;20182;-84
2022/06/07 10:55:06;;;;;;;1.93;1.83;;;;;;;;;;5054742;28;20190;-84
2022/06/07 10:57:37;;;;;;;3.53;1.90;;;;;;;;;;5054957;28;20190;-85
2022/06/07 11:00:18;;;;;;;2.40;2.20;;;;;;;;;;5054695;28;20190;-84
2022/06/07 11:02:51;;;;;;;1.87;1.77;;;;;;;;;;5054812;28;20716;-85
2022/06/07 11:10:58;;;;;;;2.30;1.80;;;;;;;;;;5054931;28;20209;-85
2022/06/07 11:13:34;;;;;;;1.73;1.63;;;;;;;;;;5053869;28;20713;-85
2022/06/07 11:16:05;;;;;;;1.90;1.80;;;;;;;;;;5054568;28;20182;-85
2022/06/07 11:18:32;;;;;;;2.80;2.00;;;;;;;;;;5054574;28;20247;-85
2022/06/07 11:21:26;;;;;;;2.00;1.80;;;;;;;;;;5054193;28;20584;-84
2022/06/07 11:24:08;;;;;;;2.23;2.07;;;;;;;;;;5054223;28;20178;-85
2022/06/07 11:26:40;;;;;;;2.23;2.03;;;;;;;;;;5054699;28;20612;-85
2022/06/07 11:29:09;;;;;;;1.80;1.70;;;;;;;;;;5053178;28;20226;-84
2022/06/07 11:31:46;;;;;;;2.30;2.10;;;;;;;;;;5054504;28;20198;-84
2022/06/07 11:34:23;;;;;;;2.27;2.17;;;;;;;;;;5054383;28;20561;-85
2022/06/07 11:36:51;;;;;;;2.20;2.10;;;;;;;;;;5054162;28;20184;-84
2022/06/07 11:39:33;;;;;;;2.00;1.90;;;;;;;;;;5053778;28;20225;-84
2022/06/07 11:42:28;;;;;;;2.40;2.20;;;;;;;;;;5052622;28;20197;-85
2022/06/07 11:45:06;;;;;;;2.60;2.40;;;;;;;;;;5053883;28;20220;-85
2022/06/07 11:47:54;;;;;;;1.83;1.73;;;;;;;;;;5053992;28;20194;-85
2022/06/07 11:50:29;;;;;;;3.77;2.00;;;;;;;;;;5053824;28;20260;-85
2022/06/07 11:53:00;;;;;;;1.90;1.80;;;;;;;;;;5054009;28;20205;-85
2022/06/07 11:55:39;;;;;;;1.90;1.80;;;;;;;;;;5053712;28;20190;-84
2022/06/07 11:58:07;;;;;;;2.83;1.70;;;;;;;;;;5053945;28;20186;-84
2022/06/07 12:00:50;;;;;;;4.00;2.10;;;;;;;;;;5053998;28;20233;-84
2022/06/07 12:03:33;;;;;;;2.37;2.20;;;;;;;;;;5053799;28;20186;-84
2022/06/07 12:06:15;;;;;;;2.17;2.03;;;;;;;;;;5054154;28;20182;-85
2022/06/07 12:08:51;;;;;;;3.03;2.00;;;;;;;;;;5053192;28;20182;-84
2022/06/07 12:11:23;;;;;;;2.23;2.03;;;;;;;;;;5053210;28;20201;-84
2022/06/07 12:14:08;;;;;;;2.83;2.00;;;;;;;;;;5053609;28;20194;-85
2022/06/07 12:16:38;;;;;;;3.43;2.00;;;;;;;;;;5053504;28;20197;-84
2022/06/07 12:19:18;;;;;;;3.10;2.20;;;;;;;;;;5053179;28;20700;-84
2022/06/07 12:21:53;;;;;;;2.27;2.10;;;;;;;;;;5053467;28;20240;-85
2022/06/07 12:24:20;;;;;;;2.10;1.97;;;;;;;;;;5053161;28;20181;-84
2022/06/07 12:26:50;;;;;;;1.97;1.87;;;;;;;;;;5053202;28;20208;-84
2022/06/07 12:29:23;;;;;;;2.43;2.00;;;;;;;;;;5053143;28;20236;-84
2022/06/07 12:31:52;;;;;;;6.97;2.27;;;;;;;;;;5053003;28;20198;-84
2022/06/07 12:34:21;;;;;;;2.27;2.07;;;;;;;;;;5052852;28;20202;-84
2022/06/07 12:36:54;;;;;;;4.23;2.23;;;;;;;;;;5052971;28;20620;-84
2022/06/07 12:39:21;;;;;;;3.30;2.83;;;;;;;;;;5052905;28;20189;-84
2022/06/07 12:41:53;;;;;;;3.17;2.13;;;;;;;;;;5053201;28;20198;-84
2022/06/07 12:44:30;;;;;;;3.60;2.73;;;;;;;;;;5052724;28;20657;-84
2022/06/07 12:46:58;;;;;;;2.13;2.03;;;;;;;;;;5053135;28;20182;-84
2022/06/07 12:49:27;;;;;;;2.63;1.83;;;;;;;;;;5052830;28;20225;-84
2022/06/07 12:51:59;;;;;;;4.60;2.20;;;;;;;;;;5052745;28;20785;-84
2022/06/07 12:54:28;;;;;;;2.10;2.00;;;;;;;;;;5051927;28;20186;-84
2022/06/07 12:56:58;;;;;;;1.83;1.73;;;;;;;;;;5052881;28;20289;-84
2022/06/07 12:59:36;;;;;;;2.03;1.93;;;;;;;;;;5052602;28;20251;-84
2022/06/07 13:02:13;;;;;;;3.70;2.17;;;;;;;;;;5052950;28;20255;-84
2022/06/07 13:04:45;;;;;;;2.53;2.33;;;;;;;;;;5052296;28;20181;-84
2022/06/07 13:07:19;;;;;;;2.70;2.20;;;;;;;;;;5052831;28;20190;-84
2022/06/07 13:09:48;;;;;;;2.10;2.00;;;;;;;;;;5052291;28;20209;-84
2022/06/07 13:12:20;;;;;;;2.57;2.10;;;;;;;;;;5052431;28;20240;-84
2022/06/07 13:14:47;;;;;;;2.43;2.23;;;;;;;;;;5052138;28;20268;-85
2022/06/07 13:17:17;;;;;;;2.10;2.00;;;;;;;;;;5052164;28;20272;-84
2022/06/07 13:19:45;;;;;;;2.53;2.00;;;;;;;;;;5051421;28;20198;-84
2022/06/07 13:22:14;;;;;;;2.00;1.87;;;;;;;;;;5052173;28;20685;-84
2022/06/07 13:24:45;;;;;;;2.57;1.87;;;;;;;;;;5052348;28;20190;-84
2022/06/07 13:27:37;;;;;;;2.67;2.00;;;;;;;;;;5051920;28;20661;-84
2022/06/07 13:30:10;;;;;;;2.60;2.40;;;;;;;;;;5051885;28;20241;-84
2022/06/07 13:32:37;;;;;;;2.33;2.10;;;;;;;;;;5051996;28;20192;-85
2022/06/07 13:35:19;;;;;;;3.20;2.10;;;;;;;;;;5051921;28;20194;-84
2022/06/07 13:37:59;;;;;;;1.90;1.80;;;;;;;;;;5051934;28;20190;-84
2022/06/07 13:40:30;;;;;;;2.07;1.90;;;;;;;;;;5051889;28;20276;-84
2022/06/07 13:43:09;;;;;;;1.90;1.80;;;;;;;;;;5051819;28;20216;-84
2022/06/07 13:45:43;;;;;;;6.43;2.13;;;;;;;;;;5051894;28;20243;-84
2022/06/07 13:48:16;;;;;;;3.37;2.30;;;;;;;;;;5051869;28;20186;-85
2022/06/07 13:53:46;;;;;;;1.90;1.80;;;;;;;;;;5051662;28;20181;-84
2022/06/07 13:56:15;;;;;;;3.20;1.83;;;;;;;;;;5051724;28;20201;-84
2022/06/07 13:58:49;;;;;;;2.20;2.10;;;;;;;;;;5051569;28;20197;-84
2022/06/07 14:01:18;;;;;;;2.73;2.03;;;;;;;;;;5051706;28;20190;-84
2022/06/07 14:03:47;;;;;;;2.13;1.93;;;;;;;;;;5051781;28;20263;-84
2022/06/07 14:06:24;;;;;;;4.87;2.40;;;;;;;;;;5056157;28;20198;-84
2022/06/07 14:08:52;;;;;;;2.30;2.10;;;;;;;;;;5055491;28;20609;-84
2022/06/07 14:11:19;;;;;;;2.30;2.10;;;;;;;;;;5034365;28;20630;-84
2022/06/07 14:13:48;;;;;;;2.57;1.97;;;;;;;;;;5035696;28;20186;-83
2022/06/07 14:16:17;;;;;;;2.10;1.80;;;;;;;;;;5035542;28;20716;-84
2022/06/07 14:18:45;;;;;;;2.60;1.90;;;;;;;;;;5035453;28;20202;-84
2022/06/07 14:21:12;;;;;;;3.00;1.83;;;;;;;;;;5035123;28;20241;-84
2022/06/07 14:23:39;;;;;;;2.60;2.40;;;;;;;;;;5035250;28;20203;-84
2022/06/07 14:26:07;;;;;;;2.80;2.00;;;;;;;;;;5034881;28;20260;-83
2022/06/07 14:28:34;;;;;;;2.03;1.90;;;;;;;;;;5021923;28;20209;-84
2022/06/07 14:31:03;;;;;;;2.17;2.03;;;;;;;;;;5034162;28;20226;-83
2022/06/07 14:33:30;;;;;;;4.30;1.90;;;;;;;;;;5024931;28;20207;-83
2022/06/07 14:35:57;;;;;;;3.13;2.20;;;;;;;;;;5021181;28;20242;-84
2022/06/07 14:38:26;;;;;;;2.10;2.00;;;;;;;;;;5015149;28;20290;-84
2022/06/07 14:40:53;;;;;;;2.70;2.20;;;;;;;;;;5030348;28;20202;-83
2022/06/07 14:43:22;;;;;;;3.23;2.17;;;;;;;;;;5040704;28;20252;-78
2022/06/07 14:45:54;;;;;;;2.00;1.90;;;;;;;;;;5035232;28;20230;-79
2022/06/07 14:48:30;;;;;;;2.27;2.13;;;;;;;;;;5034863;28;20194;-79
2022/06/07 14:50:57;;;;;;;2.30;1.80;;;;;;;;;;5034717;28;20242;-79
2022/06/07 14:53:25;;;;;;;3.33;2.17;;;;;;;;;;5034813;28;20198;-79
2022/06/07 14:55:52;;;;;;;3.27;2.33;;;;;;;;;;5035120;28;20237;-79
2022/06/07 14:58:20;;;;;;;3.00;1.70;;;;;;;;;;5034784;28;20282;-79
2022/06/07 15:00:47;;;;;;;4.03;2.27;;;;;;;;;;5034592;28;20199;-79
2022/06/07 15:03:17;;;;;;;2.03;1.93;;;;;;;;;;5034098;28;20203;-79
2022/06/07 15:05:49;;;;;;;2.20;2.00;;;;;;;;;;5034620;28;20582;-79
2022/06/07 15:08:18;;;;;;;1.87;1.77;;;;;;;;;;5034476;28;20254;-79
2022/06/07 15:10:46;;;;;;;3.97;2.03;;;;;;;;;;5034654;28;20256;-79
2022/06/07 15:13:20;;;;;;;3.17;1.90;;;;;;;;;;5033788;28;20234;-79
2022/06/07 15:15:47;;;;;;;1.93;1.83;;;;;;;;;;5032768;28;20179;-78
2022/06/07 15:18:16;;;;;;;2.30;1.93;;;;;;;;;;5032164;28;20198;-78
2022/06/07 15:20:49;;;;;;;2.40;1.80;;;;;;;;;;5035194;28;20225;-79
2022/06/07 15:23:20;;;;;;;2.80;2.10;;;;;;;;;;5035532;28;20277;-79
2022/06/07 15:25:51;;;;;;;2.67;2.47;;;;;;;;;;5034245;28;20198;-79